sensor_id;sensor_type;location;lat;lon;timestamp;P1;durP1;ratioP1;P2;durP2;ratioP2
53801;SDS011;39709;53.334;6.534;2023-07-31T00:00:49;6.38;;;1.80;;
53801;SDS011;39709;53.334;6.534;2023-07-31T00:03:15;7.70;;;2.30;;
53801;SDS011;39709;53.334;6.534;2023-07-31T00:05:40;5.57;;;2.08;;
53801;SDS011;39709;53.334;6.534;2023-07-31T00:08:06;6.00;;;2.13;;
53801;SDS011;39709;53.334;6.534;2023-07-31T00:10:32;5.90;;;1.90;;
53801;SDS011;39709;53.334;6.534;2023-07-31T00:12:58;6.27;;;2.60;;
53801;SDS011;39709;53.334;6.534;2023-07-31T00:15:24;7.40;;;2.40;;
53801;SDS011;39709;53.334;6.534;2023-07-31T00:17:50;6.40;;;2.17;;
53801;SDS011;39709;53.334;6.534;2023-07-31T00:20:15;11.93;;;2.63;;
53801;SDS011;39709;53.334;6.534;2023-07-31T00:22:41;6.63;;;2.50;;
53801;SDS011;39709;53.334;6.534;2023-07-31T00:25:07;7.30;;;2.72;;
53801;SDS011;39709;53.334;6.534;2023-07-31T00:27:33;7.05;;;2.47;;
53801;SDS011;39709;53.334;6.534;2023-07-31T00:29:58;9.67;;;2.90;;
53801;SDS011;39709;53.334;6.534;2023-07-31T00:32:24;6.57;;;2.73;;
53801;SDS011;39709;53.334;6.534;2023-07-31T00:34:50;7.57;;;2.67;;
53801;SDS011;39709;53.334;6.534;2023-07-31T00:37:15;6.87;;;2.83;;
53801;SDS011;39709;53.334;6.534;2023-07-31T00:39:41;7.55;;;2.70;;
53801;SDS011;39709;53.334;6.534;2023-07-31T00:42:07;6.47;;;2.60;;
53801;SDS011;39709;53.334;6.534;2023-07-31T00:44:33;6.50;;;2.57;;
53801;SDS011;39709;53.334;6.534;2023-07-31T00:46:58;5.60;;;2.22;;
53801;SDS011;39709;53.334;6.534;2023-07-31T00:49:25;6.80;;;2.42;;
53801;SDS011;39709;53.334;6.534;2023-07-31T00:51:51;6.10;;;2.30;;
53801;SDS011;39709;53.334;6.534;2023-07-31T00:54:17;5.78;;;2.30;;
53801;SDS011;39709;53.334;6.534;2023-07-31T00:56:44;6.50;;;2.33;;
53801;SDS011;39709;53.334;6.534;2023-07-31T00:59:11;6.78;;;2.58;;
53801;SDS011;39709;53.334;6.534;2023-07-31T01:01:37;6.63;;;2.20;;
53801;SDS011;39709;53.334;6.534;2023-07-31T01:04:03;5.43;;;1.77;;
53801;SDS011;39709;53.334;6.534;2023-07-31T01:09:20;4.10;;;1.30;;
53801;SDS011;39709;53.334;6.534;2023-07-31T01:12:05;4.68;;;1.38;;
53801;SDS011;39709;53.334;6.534;2023-07-31T01:14:32;4.15;;;1.30;;
53801;SDS011;39709;53.334;6.534;2023-07-31T01:16:58;5.40;;;1.30;;
53801;SDS011;39709;53.334;6.534;2023-07-31T01:19:24;6.95;;;1.38;;
53801;SDS011;39709;53.334;6.534;2023-07-31T01:27:44;5.13;;;1.60;;
53801;SDS011;39709;53.334;6.534;2023-07-31T01:30:21;4.70;;;1.80;;
53801;SDS011;39709;53.334;6.534;2023-07-31T01:32:52;4.75;;;1.60;;
53801;SDS011;39709;53.334;6.534;2023-07-31T01:35:21;4.63;;;1.75;;
53801;SDS011;39709;53.334;6.534;2023-07-31T01:37:46;4.40;;;1.87;;
53801;SDS011;39709;53.334;6.534;2023-07-31T01:40:12;4.80;;;1.83;;
53801;SDS011;39709;53.334;6.534;2023-07-31T01:42:38;4.30;;;1.60;;
53801;SDS011;39709;53.334;6.534;2023-07-31T01:45:03;4.80;;;1.80;;
53801;SDS011;39709;53.334;6.534;2023-07-31T01:47:30;4.43;;;1.57;;
53801;SDS011;39709;53.334;6.534;2023-07-31T01:49:55;5.00;;;1.50;;
53801;SDS011;39709;53.334;6.534;2023-07-31T01:52:21;4.23;;;1.40;;
53801;SDS011;39709;53.334;6.534;2023-07-31T01:54:47;4.90;;;1.60;;
53801;SDS011;39709;53.334;6.534;2023-07-31T01:57:12;6.87;;;2.00;;
53801;SDS011;39709;53.334;6.534;2023-07-31T01:59:38;6.47;;;1.85;;
53801;SDS011;39709;53.334;6.534;2023-07-31T02:02:04;5.00;;;1.40;;
53801;SDS011;39709;53.334;6.534;2023-07-31T02:04:30;5.40;;;1.42;;
53801;SDS011;39709;53.334;6.534;2023-07-31T02:06:55;6.23;;;1.90;;
53801;SDS011;39709;53.334;6.534;2023-07-31T02:09:21;5.90;;;1.88;;
53801;SDS011;39709;53.334;6.534;2023-07-31T02:11:46;6.10;;;2.00;;
53801;SDS011;39709;53.334;6.534;2023-07-31T02:14:12;12.30;;;2.13;;
53801;SDS011;39709;53.334;6.534;2023-07-31T02:16:38;5.90;;;1.90;;
53801;SDS011;39709;53.334;6.534;2023-07-31T02:19:03;8.10;;;2.00;;
53801;SDS011;39709;53.334;6.534;2023-07-31T02:21:29;4.75;;;1.75;;
53801;SDS011;39709;53.334;6.534;2023-07-31T02:23:55;6.33;;;1.97;;
53801;SDS011;39709;53.334;6.534;2023-07-31T02:26:20;7.03;;;1.90;;
53801;SDS011;39709;53.334;6.534;2023-07-31T02:28:46;5.37;;;2.00;;
53801;SDS011;39709;53.334;6.534;2023-07-31T02:31:11;4.45;;;1.80;;
53801;SDS011;39709;53.334;6.534;2023-07-31T02:33:37;5.67;;;2.03;;
53801;SDS011;39709;53.334;6.534;2023-07-31T02:36:03;5.63;;;1.90;;
53801;SDS011;39709;53.334;6.534;2023-07-31T02:38:29;7.17;;;2.07;;
53801;SDS011;39709;53.334;6.534;2023-07-31T02:40:54;5.05;;;1.85;;
53801;SDS011;39709;53.334;6.534;2023-07-31T02:43:20;4.67;;;1.60;;
53801;SDS011;39709;53.334;6.534;2023-07-31T02:45:48;4.67;;;1.60;;
53801;SDS011;39709;53.334;6.534;2023-07-31T02:48:16;7.28;;;1.80;;
53801;SDS011;39709;53.334;6.534;2023-07-31T02:50:42;5.82;;;2.00;;
53801;SDS011;39709;53.334;6.534;2023-07-31T02:53:08;5.13;;;1.80;;
53801;SDS011;39709;53.334;6.534;2023-07-31T02:55:33;3.93;;;1.40;;
53801;SDS011;39709;53.334;6.534;2023-07-31T02:57:59;5.53;;;1.70;;
53801;SDS011;39709;53.334;6.534;2023-07-31T03:00:24;4.47;;;1.40;;
53801;SDS011;39709;53.334;6.534;2023-07-31T03:02:50;5.13;;;1.40;;
53801;SDS011;39709;53.334;6.534;2023-07-31T03:05:16;4.50;;;1.57;;
53801;SDS011;39709;53.334;6.534;2023-07-31T03:07:41;5.53;;;1.30;;
53801;SDS011;39709;53.334;6.534;2023-07-31T03:10:07;6.40;;;1.60;;
53801;SDS011;39709;53.334;6.534;2023-07-31T03:12:33;4.70;;;1.90;;
53801;SDS011;39709;53.334;6.534;2023-07-31T03:14:59;4.83;;;1.50;;
53801;SDS011;39709;53.334;6.534;2023-07-31T03:17:25;4.10;;;1.57;;
53801;SDS011;39709;53.334;6.534;2023-07-31T03:19:50;5.50;;;1.30;;
53801;SDS011;39709;53.334;6.534;2023-07-31T03:22:16;5.63;;;1.80;;
53801;SDS011;39709;53.334;6.534;2023-07-31T03:24:42;5.40;;;1.83;;
53801;SDS011;39709;53.334;6.534;2023-07-31T03:27:07;5.38;;;2.10;;
53801;SDS011;39709;53.334;6.534;2023-07-31T03:29:33;7.83;;;1.70;;
53801;SDS011;39709;53.334;6.534;2023-07-31T03:31:58;6.20;;;1.60;;
53801;SDS011;39709;53.334;6.534;2023-07-31T03:34:24;5.05;;;1.13;;
53801;SDS011;39709;53.334;6.534;2023-07-31T03:36:50;6.63;;;1.83;;
53801;SDS011;39709;53.334;6.534;2023-07-31T03:39:15;4.40;;;1.15;;
53801;SDS011;39709;53.334;6.534;2023-07-31T03:41:41;3.83;;;1.30;;
53801;SDS011;39709;53.334;6.534;2023-07-31T03:44:07;3.92;;;1.38;;
53801;SDS011;39709;53.334;6.534;2023-07-31T03:46:32;3.90;;;1.10;;
53801;SDS011;39709;53.334;6.534;2023-07-31T03:48:59;4.35;;;1.60;;
53801;SDS011;39709;53.334;6.534;2023-07-31T03:51:25;4.50;;;1.53;;
53801;SDS011;39709;53.334;6.534;2023-07-31T03:53:50;3.72;;;1.27;;
53801;SDS011;39709;53.334;6.534;2023-07-31T03:56:16;5.83;;;1.47;;
53801;SDS011;39709;53.334;6.534;2023-07-31T03:58:42;5.07;;;1.40;;
53801;SDS011;39709;53.334;6.534;2023-07-31T04:01:07;6.20;;;1.30;;
53801;SDS011;39709;53.334;6.534;2023-07-31T04:03:33;4.15;;;1.30;;
53801;SDS011;39709;53.334;6.534;2023-07-31T04:05:59;3.73;;;1.20;;
53801;SDS011;39709;53.334;6.534;2023-07-31T04:08:24;5.53;;;1.37;;
53801;SDS011;39709;53.334;6.534;2023-07-31T04:10:50;3.77;;;1.40;;
53801;SDS011;39709;53.334;6.534;2023-07-31T04:13:16;3.65;;;0.90;;
53801;SDS011;39709;53.334;6.534;2023-07-31T04:15:42;4.57;;;0.97;;
53801;SDS011;39709;53.334;6.534;2023-07-31T04:18:07;3.85;;;1.02;;
53801;SDS011;39709;53.334;6.534;2023-07-31T04:20:33;2.43;;;0.70;;
53801;SDS011;39709;53.334;6.534;2023-07-31T04:22:59;3.60;;;0.90;;
53801;SDS011;39709;53.334;6.534;2023-07-31T04:25:24;3.60;;;1.20;;
53801;SDS011;39709;53.334;6.534;2023-07-31T04:27:50;5.07;;;1.02;;
53801;SDS011;39709;53.334;6.534;2023-07-31T04:30:16;4.27;;;1.17;;
53801;SDS011;39709;53.334;6.534;2023-07-31T04:32:42;3.38;;;0.98;;
53801;SDS011;39709;53.334;6.534;2023-07-31T04:35:07;2.67;;;0.70;;
53801;SDS011;39709;53.334;6.534;2023-07-31T04:37:33;3.25;;;1.00;;
53801;SDS011;39709;53.334;6.534;2023-07-31T04:39:59;4.27;;;0.93;;
53801;SDS011;39709;53.334;6.534;2023-07-31T04:42:24;3.53;;;1.05;;
53801;SDS011;39709;53.334;6.534;2023-07-31T04:44:50;3.07;;;1.07;;
53801;SDS011;39709;53.334;6.534;2023-07-31T04:47:18;7.63;;;0.98;;
53801;SDS011;39709;53.334;6.534;2023-07-31T04:49:44;2.42;;;0.80;;
53801;SDS011;39709;53.334;6.534;2023-07-31T04:52:09;4.17;;;0.90;;
53801;SDS011;39709;53.334;6.534;2023-07-31T04:54:35;3.50;;;0.77;;
53801;SDS011;39709;53.334;6.534;2023-07-31T04:57:01;3.40;;;1.00;;
53801;SDS011;39709;53.334;6.534;2023-07-31T04:59:26;3.45;;;0.90;;
53801;SDS011;39709;53.334;6.534;2023-07-31T05:01:52;3.00;;;0.70;;
53801;SDS011;39709;53.334;6.534;2023-07-31T05:04:17;4.10;;;0.80;;
53801;SDS011;39709;53.334;6.534;2023-07-31T05:06:43;7.43;;;0.98;;
53801;SDS011;39709;53.334;6.534;2023-07-31T05:09:09;2.87;;;0.70;;
53801;SDS011;39709;53.334;6.534;2023-07-31T05:11:35;4.00;;;0.90;;
53801;SDS011;39709;53.334;6.534;2023-07-31T05:14:01;3.70;;;0.57;;
53801;SDS011;39709;53.334;6.534;2023-07-31T05:16:26;2.80;;;0.50;;
53801;SDS011;39709;53.334;6.534;2023-07-31T05:18:52;2.50;;;0.50;;
53801;SDS011;39709;53.334;6.534;2023-07-31T05:21:17;3.13;;;0.80;;
53801;SDS011;39709;53.334;6.534;2023-07-31T05:23:43;2.80;;;0.70;;
53801;SDS011;39709;53.334;6.534;2023-07-31T05:26:09;2.92;;;0.77;;
53801;SDS011;39709;53.334;6.534;2023-07-31T05:28:35;3.63;;;0.80;;
53801;SDS011;39709;53.334;6.534;2023-07-31T05:31:04;2.53;;;0.60;;
53801;SDS011;39709;53.334;6.534;2023-07-31T05:33:30;2.63;;;0.60;;
53801;SDS011;39709;53.334;6.534;2023-07-31T05:35:56;1.92;;;0.60;;
53801;SDS011;39709;53.334;6.534;2023-07-31T05:38:22;2.20;;;0.50;;
53801;SDS011;39709;53.334;6.534;2023-07-31T05:40:48;2.20;;;0.50;;
53801;SDS011;39709;53.334;6.534;2023-07-31T05:43:14;3.72;;;0.60;;
53801;SDS011;39709;53.334;6.534;2023-07-31T05:45:42;2.17;;;0.60;;
53801;SDS011;39709;53.334;6.534;2023-07-31T05:48:08;3.27;;;0.60;;
53801;SDS011;39709;53.334;6.534;2023-07-31T05:50:33;1.92;;;0.50;;
53801;SDS011;39709;53.334;6.534;2023-07-31T05:52:59;3.00;;;0.60;;
53801;SDS011;39709;53.334;6.534;2023-07-31T05:55:25;2.85;;;0.50;;
53801;SDS011;39709;53.334;6.534;2023-07-31T05:57:53;1.77;;;0.50;;
53801;SDS011;39709;53.334;6.534;2023-07-31T06:00:19;3.70;;;0.53;;
53801;SDS011;39709;53.334;6.534;2023-07-31T06:02:46;2.42;;;0.63;;
53801;SDS011;39709;53.334;6.534;2023-07-31T06:05:12;2.65;;;0.50;;
53801;SDS011;39709;53.334;6.534;2023-07-31T06:07:38;2.47;;;0.50;;
53801;SDS011;39709;53.334;6.534;2023-07-31T06:10:04;2.88;;;0.40;;
53801;SDS011;39709;53.334;6.534;2023-07-31T06:12:34;2.88;;;0.57;;
53801;SDS011;39709;53.334;6.534;2023-07-31T06:15:00;2.15;;;0.55;;
53801;SDS011;39709;53.334;6.534;2023-07-31T06:17:27;2.57;;;0.60;;
53801;SDS011;39709;53.334;6.534;2023-07-31T06:19:53;5.10;;;0.60;;
53801;SDS011;39709;53.334;6.534;2023-07-31T06:22:18;3.00;;;0.77;;
53801;SDS011;39709;53.334;6.534;2023-07-31T06:24:44;2.85;;;0.70;;
53801;SDS011;39709;53.334;6.534;2023-07-31T06:27:10;1.93;;;0.43;;
53801;SDS011;39709;53.334;6.534;2023-07-31T06:29:36;2.95;;;0.70;;
53801;SDS011;39709;53.334;6.534;2023-07-31T06:32:02;3.33;;;0.75;;
53801;SDS011;39709;53.334;6.534;2023-07-31T06:34:28;4.87;;;0.90;;
53801;SDS011;39709;53.334;6.534;2023-07-31T06:36:54;3.55;;;0.70;;
53801;SDS011;39709;53.334;6.534;2023-07-31T06:39:21;3.35;;;0.75;;
53801;SDS011;39709;53.334;6.534;2023-07-31T06:41:46;6.50;;;1.00;;
53801;SDS011;39709;53.334;6.534;2023-07-31T06:44:12;5.20;;;1.08;;
53801;SDS011;39709;53.334;6.534;2023-07-31T06:46:38;3.73;;;1.00;;
53801;SDS011;39709;53.334;6.534;2023-07-31T06:49:03;6.10;;;1.10;;
53801;SDS011;39709;53.334;6.534;2023-07-31T06:51:29;3.53;;;0.83;;
53801;SDS011;39709;53.334;6.534;2023-07-31T06:53:56;3.97;;;0.70;;
53801;SDS011;39709;53.334;6.534;2023-07-31T06:56:22;5.00;;;0.80;;
53801;SDS011;39709;53.334;6.534;2023-07-31T06:58:48;3.17;;;0.98;;
53801;SDS011;39709;53.334;6.534;2023-07-31T07:01:14;7.23;;;1.27;;
53801;SDS011;39709;53.334;6.534;2023-07-31T07:03:40;3.90;;;0.95;;
53801;SDS011;39709;53.334;6.534;2023-07-31T07:06:05;6.80;;;1.00;;
53801;SDS011;39709;53.334;6.534;2023-07-31T07:08:32;6.85;;;1.42;;
53801;SDS011;39709;53.334;6.534;2023-07-31T07:10:57;5.70;;;1.10;;
53801;SDS011;39709;53.334;6.534;2023-07-31T07:13:23;5.22;;;1.40;;
53801;SDS011;39709;53.334;6.534;2023-07-31T07:15:49;7.87;;;1.50;;
53801;SDS011;39709;53.334;6.534;2023-07-31T07:18:15;5.93;;;1.40;;
53801;SDS011;39709;53.334;6.534;2023-07-31T07:20:45;7.38;;;1.27;;
53801;SDS011;39709;53.334;6.534;2023-07-31T07:23:15;8.23;;;1.90;;
53801;SDS011;39709;53.334;6.534;2023-07-31T07:25:41;7.10;;;1.83;;
53801;SDS011;39709;53.334;6.534;2023-07-31T07:28:14;8.40;;;1.90;;
53801;SDS011;39709;53.334;6.534;2023-07-31T07:30:39;8.27;;;1.87;;
53801;SDS011;39709;53.334;6.534;2023-07-31T07:33:05;10.07;;;2.40;;
53801;SDS011;39709;53.334;6.534;2023-07-31T07:35:34;10.83;;;2.50;;
53801;SDS011;39709;53.334;6.534;2023-07-31T07:38:04;10.30;;;2.13;;
53801;SDS011;39709;53.334;6.534;2023-07-31T07:40:29;10.55;;;2.10;;
53801;SDS011;39709;53.334;6.534;2023-07-31T07:42:55;9.73;;;2.30;;
53801;SDS011;39709;53.334;6.534;2023-07-31T07:45:21;11.40;;;2.83;;
53801;SDS011;39709;53.334;6.534;2023-07-31T07:47:46;10.67;;;2.40;;
53801;SDS011;39709;53.334;6.534;2023-07-31T07:50:12;10.18;;;2.38;;
53801;SDS011;39709;53.334;6.534;2023-07-31T07:52:38;7.83;;;1.70;;
53801;SDS011;39709;53.334;6.534;2023-07-31T07:55:04;7.20;;;1.80;;
53801;SDS011;39709;53.334;6.534;2023-07-31T07:57:29;6.40;;;1.60;;
53801;SDS011;39709;53.334;6.534;2023-07-31T07:59:55;8.77;;;1.88;;
53801;SDS011;39709;53.334;6.534;2023-07-31T08:02:21;7.83;;;1.63;;
53801;SDS011;39709;53.334;6.534;2023-07-31T08:04:47;7.93;;;1.73;;
53801;SDS011;39709;53.334;6.534;2023-07-31T08:07:13;6.78;;;1.42;;
53801;SDS011;39709;53.334;6.534;2023-07-31T08:09:39;6.00;;;1.80;;
53801;SDS011;39709;53.334;6.534;2023-07-31T08:12:05;6.65;;;1.73;;
53801;SDS011;39709;53.334;6.534;2023-07-31T08:14:31;8.80;;;1.63;;
53801;SDS011;39709;53.334;6.534;2023-07-31T08:16:57;6.27;;;1.40;;
53801;SDS011;39709;53.334;6.534;2023-07-31T08:19:22;5.85;;;1.40;;
53801;SDS011;39709;53.334;6.534;2023-07-31T08:21:48;6.63;;;1.80;;
53801;SDS011;39709;53.334;6.534;2023-07-31T08:24:14;8.88;;;1.90;;
53801;SDS011;39709;53.334;6.534;2023-07-31T08:26:40;6.75;;;1.55;;
53801;SDS011;39709;53.334;6.534;2023-07-31T08:29:06;3.60;;;0.90;;
53801;SDS011;39709;53.334;6.534;2023-07-31T08:31:31;3.25;;;0.60;;
53801;SDS011;39709;53.334;6.534;2023-07-31T08:33:57;2.20;;;0.50;;
53801;SDS011;39709;53.334;6.534;2023-07-31T08:36:23;2.67;;;0.75;;
53801;SDS011;39709;53.334;6.534;2023-07-31T08:38:49;1.90;;;0.40;;
53801;SDS011;39709;53.334;6.534;2023-07-31T08:41:15;2.25;;;0.40;;
53801;SDS011;39709;53.334;6.534;2023-07-31T08:43:44;1.95;;;0.50;;
53801;SDS011;39709;53.334;6.534;2023-07-31T08:46:11;1.92;;;0.43;;
53801;SDS011;39709;53.334;6.534;2023-07-31T08:48:37;2.40;;;0.50;;
53801;SDS011;39709;53.334;6.534;2023-07-31T08:51:03;2.73;;;0.57;;
53801;SDS011;39709;53.334;6.534;2023-07-31T08:53:29;2.13;;;0.52;;
53801;SDS011;39709;53.334;6.534;2023-07-31T08:55:55;2.03;;;0.40;;
53801;SDS011;39709;53.334;6.534;2023-07-31T08:58:23;1.95;;;0.50;;
53801;SDS011;39709;53.334;6.534;2023-07-31T09:00:50;2.25;;;0.40;;
53801;SDS011;39709;53.334;6.534;2023-07-31T09:03:17;3.03;;;0.45;;
53801;SDS011;39709;53.334;6.534;2023-07-31T09:05:46;2.72;;;0.50;;
53801;SDS011;39709;53.334;6.534;2023-07-31T09:08:13;1.67;;;0.40;;
53801;SDS011;39709;53.334;6.534;2023-07-31T09:10:43;3.13;;;0.47;;
53801;SDS011;39709;53.334;6.534;2023-07-31T09:13:11;1.40;;;0.40;;
53801;SDS011;39709;53.334;6.534;2023-07-31T09:15:41;1.73;;;0.40;;
53801;SDS011;39709;53.334;6.534;2023-07-31T09:18:08;1.90;;;0.50;;
53801;SDS011;39709;53.334;6.534;2023-07-31T09:20:35;1.80;;;0.50;;
53801;SDS011;39709;53.334;6.534;2023-07-31T09:23:06;1.92;;;0.40;;
53801;SDS011;39709;53.334;6.534;2023-07-31T09:25:36;2.38;;;0.40;;
53801;SDS011;39709;53.334;6.534;2023-07-31T09:28:05;4.03;;;0.50;;
53801;SDS011;39709;53.334;6.534;2023-07-31T09:30:43;1.20;;;0.40;;
53801;SDS011;39709;53.334;6.534;2023-07-31T09:33:16;1.50;;;0.40;;
53801;SDS011;39709;53.334;6.534;2023-07-31T09:35:42;1.85;;;0.40;;
53801;SDS011;39709;53.334;6.534;2023-07-31T09:38:13;2.13;;;0.40;;
53801;SDS011;39709;53.334;6.534;2023-07-31T09:40:40;1.20;;;0.40;;
53801;SDS011;39709;53.334;6.534;2023-07-31T09:43:11;1.48;;;0.50;;
53801;SDS011;39709;53.334;6.534;2023-07-31T09:45:39;1.90;;;0.50;;
53801;SDS011;39709;53.334;6.534;2023-07-31T09:48:07;1.63;;;0.50;;
53801;SDS011;39709;53.334;6.534;2023-07-31T09:50:46;1.60;;;0.40;;
53801;SDS011;39709;53.334;6.534;2023-07-31T09:53:13;1.63;;;0.40;;
53801;SDS011;39709;53.334;6.534;2023-07-31T09:55:40;1.33;;;0.40;;
53801;SDS011;39709;53.334;6.534;2023-07-31T09:58:11;1.20;;;0.40;;
53801;SDS011;39709;53.334;6.534;2023-07-31T10:00:38;1.58;;;0.50;;
53801;SDS011;39709;53.334;6.534;2023-07-31T10:03:05;1.40;;;0.30;;
53801;SDS011;39709;53.334;6.534;2023-07-31T10:05:53;1.33;;;0.40;;
53801;SDS011;39709;53.334;6.534;2023-07-31T10:08:20;2.85;;;0.40;;
53801;SDS011;39709;53.334;6.534;2023-07-31T10:10:48;1.40;;;0.40;;
53801;SDS011;39709;53.334;6.534;2023-07-31T10:13:14;3.80;;;0.57;;
53801;SDS011;39709;53.334;6.534;2023-07-31T10:15:41;2.90;;;0.60;;
53801;SDS011;39709;53.334;6.534;2023-07-31T10:18:08;3.42;;;0.60;;
53801;SDS011;39709;53.334;6.534;2023-07-31T10:20:35;3.07;;;0.80;;
53801;SDS011;39709;53.334;6.534;2023-07-31T10:23:02;2.97;;;0.63;;
53801;SDS011;39709;53.334;6.534;2023-07-31T10:25:28;2.83;;;0.60;;
53801;SDS011;39709;53.334;6.534;2023-07-31T10:27:54;3.85;;;0.90;;
53801;SDS011;39709;53.334;6.534;2023-07-31T10:30:23;4.05;;;0.75;;
53801;SDS011;39709;53.334;6.534;2023-07-31T10:32:51;3.80;;;0.90;;
53801;SDS011;39709;53.334;6.534;2023-07-31T10:35:19;2.92;;;0.60;;
53801;SDS011;39709;53.334;6.534;2023-07-31T10:37:47;3.65;;;0.80;;
53801;SDS011;39709;53.334;6.534;2023-07-31T10:40:23;6.07;;;0.98;;
53801;SDS011;39709;53.334;6.534;2023-07-31T10:42:56;3.88;;;0.90;;
53801;SDS011;39709;53.334;6.534;2023-07-31T10:48:14;4.95;;;0.75;;
53801;SDS011;39709;53.334;6.534;2023-07-31T10:50:56;3.45;;;0.93;;
53801;SDS011;39709;53.334;6.534;2023-07-31T10:53:22;4.30;;;0.90;;
53801;SDS011;39709;53.334;6.534;2023-07-31T10:55:57;5.70;;;1.00;;
53801;SDS011;39709;53.334;6.534;2023-07-31T10:58:24;7.13;;;1.57;;
53801;SDS011;39709;53.334;6.534;2023-07-31T11:00:51;7.70;;;1.00;;
53801;SDS011;39709;53.334;6.534;2023-07-31T11:03:24;4.63;;;0.85;;
53801;SDS011;39709;53.334;6.534;2023-07-31T11:05:59;5.47;;;0.80;;
53801;SDS011;39709;53.334;6.534;2023-07-31T11:08:29;2.88;;;0.90;;
53801;SDS011;39709;53.334;6.534;2023-07-31T11:13:32;3.47;;;0.80;;
53801;SDS011;39709;53.334;6.534;2023-07-31T11:16:07;3.63;;;0.80;;
53801;SDS011;39709;53.334;6.534;2023-07-31T11:18:32;3.17;;;0.90;;
53801;SDS011;39709;53.334;6.534;2023-07-31T11:20:58;3.87;;;0.80;;
53801;SDS011;39709;53.334;6.534;2023-07-31T11:23:24;3.85;;;0.65;;
53801;SDS011;39709;53.334;6.534;2023-07-31T11:25:50;2.47;;;0.63;;
53801;SDS011;39709;53.334;6.534;2023-07-31T11:28:16;4.03;;;0.93;;
53801;SDS011;39709;53.334;6.534;2023-07-31T11:30:44;2.95;;;0.60;;
53801;SDS011;39709;53.334;6.534;2023-07-31T11:33:11;3.50;;;0.60;;
53801;SDS011;39709;53.334;6.534;2023-07-31T11:35:45;2.43;;;0.60;;
53801;SDS011;39709;53.334;6.534;2023-07-31T11:38:22;4.50;;;0.80;;
53801;SDS011;39709;53.334;6.534;2023-07-31T11:40:49;2.78;;;0.70;;
53801;SDS011;39709;53.334;6.534;2023-07-31T11:43:15;2.80;;;0.80;;
53801;SDS011;39709;53.334;6.534;2023-07-31T11:45:53;2.22;;;0.60;;
53801;SDS011;39709;53.334;6.534;2023-07-31T11:48:27;1.70;;;0.60;;
53801;SDS011;39709;53.334;6.534;2023-07-31T11:50:58;3.28;;;0.63;;
53801;SDS011;39709;53.334;6.534;2023-07-31T11:53:26;3.13;;;0.73;;
53801;SDS011;39709;53.334;6.534;2023-07-31T11:56:02;2.65;;;0.70;;
53801;SDS011;39709;53.334;6.534;2023-07-31T11:58:32;2.85;;;0.68;;
53801;SDS011;39709;53.334;6.534;2023-07-31T12:01:00;2.07;;;0.60;;
53801;SDS011;39709;53.334;6.534;2023-07-31T12:03:26;3.88;;;0.70;;
53801;SDS011;39709;53.334;6.534;2023-07-31T12:05:53;4.22;;;0.82;;
53801;SDS011;39709;53.334;6.534;2023-07-31T12:08:20;1.73;;;0.57;;
53801;SDS011;39709;53.334;6.534;2023-07-31T12:10:49;2.90;;;0.70;;
53801;SDS011;39709;53.334;6.534;2023-07-31T12:13:23;1.97;;;0.60;;
53801;SDS011;39709;53.334;6.534;2023-07-31T12:15:54;2.47;;;0.93;;
53801;SDS011;39709;53.334;6.534;2023-07-31T12:18:22;3.72;;;0.77;;
53801;SDS011;39709;53.334;6.534;2023-07-31T12:20:56;3.10;;;0.90;;
53801;SDS011;39709;53.334;6.534;2023-07-31T12:23:27;3.78;;;0.88;;
53801;SDS011;39709;53.334;6.534;2023-07-31T12:26:03;3.47;;;0.97;;
53801;SDS011;39709;53.334;6.534;2023-07-31T12:28:36;3.42;;;0.90;;
53801;SDS011;39709;53.334;6.534;2023-07-31T12:31:03;3.65;;;1.20;;
53801;SDS011;39709;53.334;6.534;2023-07-31T12:33:34;3.25;;;0.80;;
53801;SDS011;39709;53.334;6.534;2023-07-31T12:36:01;3.15;;;0.70;;
53801;SDS011;39709;53.334;6.534;2023-07-31T12:38:28;3.70;;;1.07;;
53801;SDS011;39709;53.334;6.534;2023-07-31T12:40:54;2.88;;;0.80;;
53801;SDS011;39709;53.334;6.534;2023-07-31T12:43:20;3.05;;;0.77;;
53801;SDS011;39709;53.334;6.534;2023-07-31T12:45:45;3.43;;;0.90;;
53801;SDS011;39709;53.334;6.534;2023-07-31T12:48:12;3.50;;;0.95;;
53801;SDS011;39709;53.334;6.534;2023-07-31T12:50:38;2.50;;;0.70;;
53801;SDS011;39709;53.334;6.534;2023-07-31T12:53:04;2.73;;;0.60;;
53801;SDS011;39709;53.334;6.534;2023-07-31T12:55:30;2.22;;;0.60;;
53801;SDS011;39709;53.334;6.534;2023-07-31T12:57:59;3.67;;;0.80;;
53801;SDS011;39709;53.334;6.534;2023-07-31T13:00:25;4.75;;;0.80;;
53801;SDS011;39709;53.334;6.534;2023-07-31T13:02:51;2.73;;;0.50;;
53801;SDS011;39709;53.334;6.534;2023-07-31T13:05:17;3.45;;;0.68;;
53801;SDS011;39709;53.334;6.534;2023-07-31T13:07:44;3.33;;;0.60;;
53801;SDS011;39709;53.334;6.534;2023-07-31T13:10:10;3.30;;;0.80;;
53801;SDS011;39709;53.334;6.534;2023-07-31T13:12:36;2.72;;;0.70;;
53801;SDS011;39709;53.334;6.534;2023-07-31T13:15:02;3.77;;;0.80;;
53801;SDS011;39709;53.334;6.534;2023-07-31T13:17:31;2.67;;;0.77;;
53801;SDS011;39709;53.334;6.534;2023-07-31T13:19:57;3.88;;;0.85;;
53801;SDS011;39709;53.334;6.534;2023-07-31T13:22:23;4.18;;;0.80;;
53801;SDS011;39709;53.334;6.534;2023-07-31T13:24:49;3.22;;;0.85;;
53801;SDS011;39709;53.334;6.534;2023-07-31T13:27:15;5.30;;;1.13;;
53801;SDS011;39709;53.334;6.534;2023-07-31T13:29:48;8.82;;;1.17;;
53801;SDS011;39709;53.334;6.534;2023-07-31T13:32:15;5.13;;;1.38;;
53801;SDS011;39709;53.334;6.534;2023-07-31T13:34:47;3.93;;;0.90;;
53801;SDS011;39709;53.334;6.534;2023-07-31T13:37:13;5.88;;;1.02;;
53801;SDS011;39709;53.334;6.534;2023-07-31T13:39:39;5.82;;;1.15;;
53801;SDS011;39709;53.334;6.534;2023-07-31T13:42:06;5.70;;;1.02;;
53801;SDS011;39709;53.334;6.534;2023-07-31T13:44:36;4.80;;;1.00;;
53801;SDS011;39709;53.334;6.534;2023-07-31T13:47:06;5.00;;;1.20;;
53801;SDS011;39709;53.334;6.534;2023-07-31T13:49:32;5.18;;;1.02;;
53801;SDS011;39709;53.334;6.534;2023-07-31T13:51:58;4.63;;;1.00;;
53801;SDS011;39709;53.334;6.534;2023-07-31T13:54:24;4.57;;;1.00;;
53801;SDS011;39709;53.334;6.534;2023-07-31T13:56:51;5.30;;;0.93;;
53801;SDS011;39709;53.334;6.534;2023-07-31T13:59:17;7.43;;;1.23;;
53801;SDS011;39709;53.334;6.534;2023-07-31T14:01:43;5.53;;;1.20;;
53801;SDS011;39709;53.334;6.534;2023-07-31T14:04:09;5.45;;;1.20;;
53801;SDS011;39709;53.334;6.534;2023-07-31T14:06:35;3.87;;;1.20;;
53801;SDS011;39709;53.334;6.534;2023-07-31T14:09:01;5.88;;;1.02;;
53801;SDS011;39709;53.334;6.534;2023-07-31T14:11:27;4.47;;;0.90;;
53801;SDS011;39709;53.334;6.534;2023-07-31T14:13:54;6.78;;;1.30;;
53801;SDS011;39709;53.334;6.534;2023-07-31T14:16:21;6.83;;;1.43;;
53801;SDS011;39709;53.334;6.534;2023-07-31T14:18:47;6.38;;;1.35;;
53801;SDS011;39709;53.334;6.534;2023-07-31T14:21:13;5.97;;;1.27;;
53801;SDS011;39709;53.334;6.534;2023-07-31T14:23:39;8.27;;;1.30;;
53801;SDS011;39709;53.334;6.534;2023-07-31T14:26:05;7.22;;;1.63;;
53801;SDS011;39709;53.334;6.534;2023-07-31T14:28:31;5.80;;;1.33;;
53801;SDS011;39709;53.334;6.534;2023-07-31T14:30:56;6.00;;;1.43;;
53801;SDS011;39709;53.334;6.534;2023-07-31T14:33:22;6.55;;;1.58;;
53801;SDS011;39709;53.334;6.534;2023-07-31T14:35:48;5.28;;;1.20;;
53801;SDS011;39709;53.334;6.534;2023-07-31T14:38:14;6.47;;;1.40;;
53801;SDS011;39709;53.334;6.534;2023-07-31T14:40:40;4.10;;;0.95;;
53801;SDS011;39709;53.334;6.534;2023-07-31T14:43:06;6.27;;;1.80;;
53801;SDS011;39709;53.334;6.534;2023-07-31T14:45:32;5.75;;;1.40;;
53801;SDS011;39709;53.334;6.534;2023-07-31T14:47:57;6.10;;;1.60;;
53801;SDS011;39709;53.334;6.534;2023-07-31T14:50:24;9.18;;;1.33;;
53801;SDS011;39709;53.334;6.534;2023-07-31T14:52:50;4.90;;;1.23;;
53801;SDS011;39709;53.334;6.534;2023-07-31T14:55:16;5.30;;;1.40;;
53801;SDS011;39709;53.334;6.534;2023-07-31T14:57:43;6.38;;;1.92;;
53801;SDS011;39709;53.334;6.534;2023-07-31T15:00:09;8.10;;;1.55;;